createdAt,value
2023-03-20T00:02:06.809Z,0.57
2023-03-20T00:04:33.744Z,0.60
2023-03-20T00:07:00.323Z,0.50
2023-03-20T00:09:27.136Z,0.68
2023-03-20T00:11:58.188Z,0.50
2023-03-20T00:14:25.091Z,0.32
2023-03-20T00:16:52.531Z,0.68
2023-03-20T00:19:31.593Z,0.40
2023-03-20T00:21:58.474Z,0.35
2023-03-20T00:24:25.508Z,0.60
2023-03-20T00:26:53.284Z,0.43
2023-03-20T00:29:26.187Z,0.68
2023-03-20T00:31:53.381Z,0.30
2023-03-20T00:34:23.641Z,0.40
2023-03-20T00:36:51.165Z,0.45
2023-03-20T00:39:17.720Z,0.35
2023-03-20T00:42:00.713Z,0.30
2023-03-20T00:44:41.878Z,0.50
2023-03-20T00:47:28.518Z,0.30
2023-03-20T00:49:55.977Z,0.60
2023-03-20T00:52:23.553Z,0.20
2023-03-20T00:54:50.308Z,0.10
2023-03-20T00:57:25.986Z,0.45
2023-03-20T01:00:00.305Z,0.28
2023-03-20T01:02:29.094Z,0.47
2023-03-20T01:04:56.421Z,0.28
2023-03-20T01:07:23.239Z,0.20
2023-03-20T01:09:49.795Z,0.38
2023-03-20T01:12:17.500Z,0.40
2023-03-20T01:14:45.402Z,0.32
2023-03-20T01:17:20.825Z,0.30
2023-03-20T01:19:47.807Z,0.40
2023-03-20T01:22:14.350Z,0.30
2023-03-20T01:24:41.275Z,0.47
2023-03-20T01:27:19.251Z,0.35
2023-03-20T01:29:46.742Z,0.22
2023-03-20T01:32:16.065Z,0.20
2023-03-20T01:34:43.458Z,0.35
2023-03-20T01:37:13.640Z,0.32
2023-03-20T01:39:40.226Z,0.40
2023-03-20T01:42:07.513Z,0.30
2023-03-20T01:44:36.237Z,0.22
2023-03-20T01:47:11.702Z,0.20
2023-03-20T01:50:12.679Z,0.20
2023-03-20T01:52:39.417Z,0.25
2023-03-20T01:55:06.160Z,0.20
2023-03-20T01:57:32.884Z,0.30
2023-03-20T02:00:04.060Z,0.20
2023-03-20T02:02:32.103Z,0.17
2023-03-20T02:05:03.638Z,0.22
2023-03-20T02:07:32.535Z,0.35
2023-03-20T02:09:59.374Z,0.20
2023-03-20T02:12:25.930Z,0.20
2023-03-20T02:14:53.210Z,0.40
2023-03-20T02:17:20.360Z,0.28
2023-03-20T02:20:24.458Z,0.28
2023-03-20T02:23:02.976Z,0.45
2023-03-20T02:26:14.034Z,0.25
2023-03-20T02:28:49.656Z,0.20
2023-03-20T02:31:43.695Z,0.20
2023-03-20T02:34:22.435Z,0.20
2023-03-20T02:37:18.175Z,0.30
2023-03-20T02:40:16.278Z,0.30
2023-03-20T02:42:51.483Z,0.40
2023-03-20T02:45:26.748Z,0.20
2023-03-20T02:48:08.497Z,0.30
2023-03-20T02:51:12.800Z,0.22
2023-03-20T02:53:51.565Z,0.22
2023-03-20T02:56:32.254Z,0.32
2023-03-20T02:59:06.202Z,0.15
2023-03-20T03:01:51.585Z,0.30
2023-03-20T03:04:21.979Z,0.22
2023-03-20T03:06:51.956Z,0.20
2023-03-20T03:09:27.494Z,0.22
2023-03-20T03:11:59.802Z,0.05
2023-03-20T03:14:37.646Z,0.32
2023-03-20T03:17:07.309Z,0.30
2023-03-20T03:19:37.034Z,0.20
2023-03-20T03:22:04.378Z,0.17
2023-03-20T03:24:41.238Z,0.20
2023-03-20T03:27:26.162Z,0.20
2023-03-20T03:30:12.013Z,0.32
2023-03-20T03:32:50.944Z,0.20
2023-03-20T03:35:20.694Z,0.30
2023-03-20T03:38:02.997Z,0.30
2023-03-20T03:40:40.405Z,0.38
2023-03-20T03:43:27.188Z,0.20
2023-03-20T03:46:07.009Z,0.45
2023-03-20T03:48:40.814Z,0.30
2023-03-20T03:51:16.663Z,0.50
2023-03-20T03:53:49.761Z,0.30
2023-03-20T03:56:21.294Z,0.20
2023-03-20T03:59:01.603Z,0.20
2023-03-20T04:01:29.375Z,0.15
2023-03-20T04:04:01.092Z,0.25
2023-03-20T04:06:28.192Z,0.63
2023-03-20T04:08:54.758Z,0.10
2023-03-20T04:11:26.320Z,0.20
2023-03-20T04:13:53.332Z,0.20
2023-03-20T04:16:22.758Z,0.40
2023-03-20T04:18:50.262Z,0.10
2023-03-20T04:21:16.922Z,0.20
2023-03-20T04:23:43.512Z,0.20
2023-03-20T04:26:10.151Z,0.22
2023-03-20T04:28:36.935Z,0.40
2023-03-20T04:31:04.222Z,0.50
2023-03-20T04:33:30.772Z,0.35
2023-03-20T04:35:57.382Z,0.50
2023-03-20T04:38:24.536Z,0.30
2023-03-20T04:40:51.209Z,0.20
2023-03-20T04:43:17.789Z,0.47
2023-03-20T04:45:44.400Z,0.50
2023-03-20T04:48:10.931Z,0.30
2023-03-20T04:50:37.480Z,0.20
2023-03-20T04:53:04.019Z,0.20
2023-03-20T04:55:30.685Z,0.40
2023-03-20T04:57:57.303Z,0.45
2023-03-20T05:00:24.149Z,0.40
2023-03-20T05:02:50.840Z,0.50
2023-03-20T05:05:17.439Z,0.30
2023-03-20T05:07:43.968Z,0.40
2023-03-20T05:10:11.392Z,0.57
2023-03-20T05:12:37.866Z,0.47
2023-03-20T05:15:04.566Z,0.47
2023-03-20T05:17:31.141Z,0.30
2023-03-20T05:19:57.985Z,0.30
2023-03-20T05:22:24.616Z,0.40
2023-03-20T05:24:51.325Z,0.50
2023-03-20T05:27:18.132Z,0.30
2023-03-20T05:29:44.950Z,0.55
2023-03-20T05:32:12.781Z,0.60
2023-03-20T05:34:39.587Z,0.52
2023-03-20T05:37:06.090Z,0.60
2023-03-20T05:39:32.605Z,0.70
2023-03-20T05:41:59.107Z,0.60
2023-03-20T05:44:25.631Z,0.47
2023-03-20T05:46:52.118Z,0.90
2023-03-20T05:49:18.625Z,0.68
2023-03-20T05:51:45.410Z,1.00
2023-03-20T05:54:11.880Z,0.70
2023-03-20T05:56:38.414Z,0.90
2023-03-20T05:59:04.988Z,1.00
2023-03-20T06:01:31.451Z,1.20
2023-03-20T06:03:58.028Z,1.10
2023-03-20T06:06:24.559Z,1.10
2023-03-20T06:08:51.188Z,1.10
2023-03-20T06:11:17.762Z,1.20
2023-03-20T06:13:44.255Z,1.20
2023-03-20T06:16:11.058Z,1.20
2023-03-20T06:18:39.187Z,1.33
2023-03-20T06:21:06.143Z,1.30
2023-03-20T06:23:32.682Z,2.03
2023-03-20T06:25:59.168Z,1.85
2023-03-20T06:28:25.735Z,2.55
2023-03-20T06:30:53.495Z,2.17
2023-03-20T06:33:20.558Z,2.38
2023-03-20T06:35:47.232Z,2.30
2023-03-20T06:38:14.549Z,2.20
2023-03-20T06:40:41.923Z,2.58
2023-03-20T06:43:08.638Z,2.42
2023-03-20T06:45:35.268Z,2.50
2023-03-20T06:48:01.929Z,2.10
2023-03-20T06:50:28.425Z,2.28
2023-03-20T06:52:54.993Z,2.15
2023-03-20T06:55:21.470Z,2.08
2023-03-20T06:57:47.968Z,1.88
2023-03-20T07:00:15.060Z,1.45
2023-03-20T07:02:41.563Z,1.70
2023-03-20T07:05:08.523Z,1.77
2023-03-20T07:07:35.044Z,1.60
2023-03-20T07:10:01.666Z,1.63
2023-03-20T07:12:29.048Z,1.35
2023-03-20T07:14:56.165Z,1.50
2023-03-20T07:17:23.352Z,1.67
2023-03-20T07:19:50.230Z,1.90
2023-03-20T07:22:26.062Z,1.55
2023-03-20T07:24:52.683Z,1.50
2023-03-20T07:27:19.327Z,1.40
2023-03-20T07:29:46.320Z,1.52
2023-03-20T07:32:12.834Z,1.40
2023-03-20T07:34:39.352Z,1.40
2023-03-20T07:37:05.923Z,1.55
2023-03-20T07:39:32.633Z,1.00
2023-03-20T07:41:59.269Z,1.00
2023-03-20T07:44:25.803Z,1.25
2023-03-20T07:46:52.375Z,1.33
2023-03-20T07:49:19.428Z,1.35
2023-03-20T07:51:47.251Z,1.20
2023-03-20T07:54:15.148Z,1.00
2023-03-20T07:56:42.165Z,1.10
2023-03-20T07:59:09.883Z,0.98
2023-03-20T08:01:36.380Z,1.05
2023-03-20T08:04:03.041Z,1.10
2023-03-20T08:06:29.928Z,1.05
2023-03-20T08:08:56.799Z,1.00
2023-03-20T08:11:23.823Z,1.45
2023-03-20T08:13:50.541Z,1.38
2023-03-20T08:16:17.472Z,1.35
2023-03-20T08:18:44.083Z,1.50
2023-03-20T08:21:10.584Z,1.50
2023-03-20T08:23:37.089Z,1.20
2023-03-20T08:26:03.764Z,1.52
2023-03-20T08:28:46.234Z,1.33
2023-03-20T08:31:13.613Z,1.20
2023-03-20T08:33:40.144Z,1.27
2023-03-20T08:36:07.192Z,1.35
2023-03-20T08:38:33.672Z,1.50
2023-03-20T08:41:00.164Z,1.40
2023-03-20T08:43:27.135Z,1.17
2023-03-20T08:45:54.547Z,1.00
2023-03-20T08:48:21.748Z,1.40
2023-03-20T08:50:48.281Z,1.08
2023-03-20T08:53:14.785Z,1.35
2023-03-20T08:55:41.451Z,1.00
2023-03-20T08:58:08.000Z,1.00
2023-03-20T09:00:34.483Z,1.17
2023-03-20T09:03:01.193Z,0.82
2023-03-20T09:05:27.808Z,0.82
2023-03-20T09:07:54.373Z,0.98
2023-03-20T09:10:20.926Z,1.00
2023-03-20T09:12:47.442Z,0.57
2023-03-20T09:15:14.092Z,0.80
2023-03-20T09:17:40.818Z,0.90
2023-03-20T09:20:08.328Z,0.70
2023-03-20T09:22:34.890Z,0.90
2023-03-20T09:25:01.374Z,1.00
2023-03-20T09:27:27.890Z,0.65
2023-03-20T09:29:54.422Z,0.70
2023-03-20T09:32:20.925Z,0.68
2023-03-20T09:34:47.567Z,0.60
2023-03-20T09:37:14.054Z,0.77
2023-03-20T09:39:40.730Z,0.70
2023-03-20T09:42:30.607Z,0.70
2023-03-20T09:45:15.811Z,0.60
2023-03-20T09:48:09.905Z,0.40
2023-03-20T09:50:46.889Z,0.70
2023-03-20T09:53:23.518Z,0.47
2023-03-20T09:55:52.492Z,0.70
2023-03-20T09:58:24.278Z,0.60
2023-03-20T10:00:50.845Z,0.55
2023-03-20T10:03:24.804Z,0.32
2023-03-20T10:06:07.365Z,0.45
2023-03-20T10:08:36.520Z,0.40
2023-03-20T10:11:32.260Z,0.63
2023-03-20T10:14:32.452Z,0.40
2023-03-20T10:17:25.503Z,0.50
2023-03-20T10:19:58.314Z,0.55
2023-03-20T10:22:34.571Z,0.50
2023-03-20T10:25:07.520Z,0.40
2023-03-20T10:27:51.454Z,0.50
2023-03-20T10:30:55.257Z,0.40
2023-03-20T10:33:30.540Z,0.40
2023-03-20T10:35:57.049Z,0.20
2023-03-20T10:38:44.921Z,0.30
2023-03-20T10:41:19.665Z,0.30
2023-03-20T10:43:48.894Z,0.47
2023-03-20T10:46:22.397Z,0.30
2023-03-20T10:49:16.450Z,0.35
2023-03-20T10:51:56.234Z,0.45
2023-03-20T10:54:41.538Z,0.57
2023-03-20T10:57:15.337Z,0.50
2023-03-20T10:59:48.928Z,0.20
2023-03-20T11:02:18.210Z,0.20
2023-03-20T11:04:45.508Z,0.47
2023-03-20T11:07:12.059Z,0.30
2023-03-20T11:09:38.959Z,0.20
2023-03-20T11:12:05.563Z,0.30
2023-03-20T11:14:39.131Z,0.20
2023-03-20T11:17:06.706Z,0.17
2023-03-20T11:19:35.573Z,0.20
2023-03-20T11:22:08.906Z,0.20
2023-03-20T11:24:47.312Z,0.10
2023-03-20T11:27:26.644Z,0.35
2023-03-20T11:29:55.235Z,0.30
2023-03-20T11:32:31.884Z,0.30
2023-03-20T11:35:27.030Z,0.20
2023-03-20T11:38:06.877Z,0.30
2023-03-20T11:40:34.255Z,0.25
2023-03-20T11:43:00.772Z,0.20
2023-03-20T11:45:34.211Z,0.22
2023-03-20T11:48:03.845Z,0.20
2023-03-20T11:50:32.994Z,0.35
2023-03-20T11:53:02.260Z,0.15
2023-03-20T11:55:32.167Z,0.47
2023-03-20T11:58:00.848Z,0.20
2023-03-20T12:00:37.433Z,0.17
2023-03-20T12:03:04.247Z,0.22
2023-03-20T12:05:31.012Z,0.20
2023-03-20T12:08:02.911Z,0.50
2023-03-20T12:10:41.088Z,0.13
2023-03-20T12:13:20.004Z,0.20
2023-03-20T12:16:01.581Z,0.20
2023-03-20T12:18:47.734Z,0.10
2023-03-20T12:21:27.089Z,0.20
2023-03-20T12:24:01.293Z,0.10
2023-03-20T12:27:00.881Z,0.15
2023-03-20T12:29:43.443Z,0.20
2023-03-20T12:32:35.512Z,0.20
2023-03-20T12:35:28.672Z,0.00
2023-03-20T12:37:55.565Z,0.20
2023-03-20T12:40:32.726Z,0.10
2023-03-20T12:43:09.893Z,0.10
2023-03-20T12:45:44.981Z,0.10
2023-03-20T12:48:55.832Z,0.13
2023-03-20T12:51:50.679Z,0.10
2023-03-20T12:54:32.402Z,0.28
2023-03-20T12:57:09.347Z,0.17
2023-03-20T13:00:01.330Z,0.20
2023-03-20T13:02:33.968Z,0.10
2023-03-20T13:05:10.341Z,0.20
2023-03-20T13:07:55.975Z,0.10
2023-03-20T13:10:29.428Z,0.30
2023-03-20T13:13:13.808Z,0.40
2023-03-20T13:16:05.610Z,0.20
2023-03-20T13:18:58.799Z,0.10
2023-03-20T13:21:31.244Z,0.20
2023-03-20T13:24:06.857Z,0.13
2023-03-20T13:27:01.421Z,0.13
2023-03-20T13:29:44.159Z,0.10
2023-03-20T13:32:35.934Z,0.00
2023-03-20T13:35:14.587Z,0.20
2023-03-20T13:37:47.071Z,0.10
2023-03-20T13:40:16.516Z,0.20
2023-03-20T13:42:58.896Z,0.10
2023-03-20T13:45:35.014Z,0.40
2023-03-20T13:48:11.743Z,0.20
2023-03-20T13:51:07.351Z,0.10
2023-03-20T13:54:00.639Z,0.10
2023-03-20T13:56:56.485Z,0.10
2023-03-20T13:59:29.795Z,0.25
2023-03-20T14:02:05.112Z,0.20
2023-03-20T14:04:32.552Z,0.17
2023-03-20T14:06:59.480Z,0.10
2023-03-20T14:09:31.028Z,0.10
2023-03-20T14:12:08.929Z,0.20
2023-03-20T14:14:46.870Z,0.25
2023-03-20T14:17:30.776Z,0.20
2023-03-20T14:19:58.147Z,0.10
2023-03-20T14:22:35.472Z,0.10
2023-03-20T14:25:38.172Z,0.20
2023-03-20T14:28:12.792Z,0.17
2023-03-20T14:30:41.330Z,0.17
2023-03-20T14:33:16.869Z,0.20
2023-03-20T14:35:43.396Z,0.10
2023-03-20T14:38:20.886Z,0.10
2023-03-20T14:41:06.248Z,0.35
2023-03-20T14:43:51.056Z,0.30
2023-03-20T14:46:33.971Z,0.00
2023-03-20T14:49:18.077Z,0.05
2023-03-20T14:51:47.931Z,0.20
2023-03-20T14:54:27.923Z,0.10
2023-03-20T14:56:56.015Z,0.20
2023-03-20T14:59:24.056Z,0.10
2023-03-20T15:01:58.977Z,0.10
2023-03-20T15:04:39.280Z,0.30
2023-03-20T15:07:16.104Z,0.20
2023-03-20T15:09:51.028Z,0.20
2023-03-20T15:12:21.776Z,0.10
2023-03-20T15:14:55.260Z,0.10
2023-03-20T15:17:27.976Z,0.10
2023-03-20T15:20:29.446Z,0.20
2023-03-20T15:22:58.680Z,0.10
2023-03-20T15:25:40.042Z,0.10
2023-03-20T15:28:08.073Z,0.10
2023-03-20T15:30:38.477Z,0.20
2023-03-20T15:33:06.473Z,0.20
2023-03-20T15:35:33.745Z,0.10
2023-03-20T15:38:06.354Z,0.20
2023-03-20T15:40:49.223Z,0.10
2023-03-20T15:43:24.178Z,0.13
2023-03-20T15:46:02.864Z,0.20
2023-03-20T15:48:33.199Z,0.20
2023-03-20T15:51:05.014Z,0.20
2023-03-20T15:53:39.781Z,0.13
2023-03-20T15:56:20.212Z,0.20
2023-03-20T15:58:55.323Z,0.10
2023-03-20T16:01:24.354Z,0.20
2023-03-20T16:03:53.212Z,0.20
2023-03-20T16:06:24.216Z,0.20
2023-03-20T16:09:02.175Z,0.20
2023-03-20T16:11:59.114Z,0.30
2023-03-20T16:14:28.803Z,0.68
2023-03-20T16:16:57.433Z,0.30
2023-03-20T16:19:26.216Z,0.20
2023-03-20T16:21:57.741Z,0.30
2023-03-20T16:24:30.511Z,0.20
2023-03-20T16:26:57.527Z,0.30
2023-03-20T16:29:27.424Z,0.45
2023-03-20T16:31:58.818Z,0.30
2023-03-20T16:34:36.811Z,0.20
2023-03-20T16:37:08.590Z,0.40
2023-03-20T16:39:35.225Z,0.20
2023-03-20T16:42:20.449Z,0.22
2023-03-20T16:44:47.060Z,0.35
2023-03-20T16:47:21.212Z,0.30
2023-03-20T16:49:49.428Z,0.30
2023-03-20T16:52:16.681Z,0.25
2023-03-20T16:54:44.984Z,0.40
2023-03-20T16:57:17.430Z,0.30
2023-03-20T16:59:44.494Z,0.10
2023-03-20T17:02:21.706Z,0.20
2023-03-20T17:04:48.771Z,0.20
2023-03-20T17:07:18.492Z,0.30
2023-03-20T17:10:09.838Z,0.30
2023-03-20T17:12:38.530Z,0.45
2023-03-20T17:15:05.370Z,0.43
2023-03-20T17:17:31.831Z,0.30
2023-03-20T17:19:59.442Z,0.40
2023-03-20T17:22:29.425Z,0.30
2023-03-20T17:24:56.621Z,0.32
2023-03-20T17:27:23.528Z,0.43
2023-03-20T17:29:50.108Z,0.40
2023-03-20T17:32:19.182Z,0.82
2023-03-20T17:34:46.186Z,0.60
2023-03-20T17:37:28.338Z,0.40
2023-03-20T17:39:56.019Z,0.80
2023-03-20T17:42:26.595Z,1.15
2023-03-20T17:44:53.496Z,2.15
2023-03-20T17:47:22.968Z,1.73
2023-03-20T17:49:51.963Z,1.75
2023-03-20T17:52:27.385Z,1.85
2023-03-20T17:54:54.840Z,2.33
2023-03-20T17:57:23.265Z,2.65
2023-03-20T17:59:50.122Z,1.83
2023-03-20T18:02:18.329Z,2.10
2023-03-20T18:04:46.208Z,1.77
2023-03-20T18:07:13.209Z,2.05
2023-03-20T18:09:41.067Z,2.08
2023-03-20T18:12:15.499Z,1.98
2023-03-20T18:14:42.861Z,2.17
2023-03-20T18:17:12.549Z,2.05
2023-03-20T18:19:39.321Z,1.60
2023-03-20T18:22:06.048Z,2.10
2023-03-20T18:24:32.925Z,2.17
2023-03-20T18:27:00.340Z,1.75
2023-03-20T18:29:27.038Z,1.85
2023-03-20T18:31:53.736Z,2.17
2023-03-20T18:34:20.483Z,2.50
2023-03-20T18:36:46.988Z,2.72
2023-03-20T18:39:22.492Z,2.92
2023-03-20T18:41:49.279Z,2.47
2023-03-20T18:44:16.228Z,2.13
2023-03-20T18:46:43.410Z,2.70
2023-03-20T18:49:19.450Z,2.28
2023-03-20T18:51:46.580Z,2.45
2023-03-20T18:54:13.368Z,2.55
2023-03-20T18:56:40.741Z,2.15
2023-03-20T18:59:08.069Z,2.63
2023-03-20T19:01:35.853Z,2.17
2023-03-20T19:04:02.868Z,1.80
2023-03-20T19:06:32.568Z,1.90
2023-03-20T19:09:02.675Z,2.15
2023-03-20T19:11:29.155Z,1.67
2023-03-20T19:13:55.937Z,1.60
2023-03-20T19:16:26.004Z,1.90
2023-03-20T19:18:53.978Z,2.13
2023-03-20T19:23:53.893Z,1.27
2023-03-20T19:26:21.280Z,1.67
2023-03-20T19:28:48.963Z,1.70
2023-03-20T19:31:16.214Z,1.70
2023-03-20T19:33:43.395Z,2.30
2023-03-20T19:36:34.316Z,2.05
2023-03-20T19:39:03.061Z,2.20
2023-03-20T19:41:32.127Z,1.63
2023-03-20T19:43:58.809Z,2.00
2023-03-20T19:46:42.946Z,3.08
2023-03-20T19:49:20.705Z,2.88
2023-03-20T19:51:48.728Z,2.03
2023-03-20T19:56:41.842Z,2.20
2023-03-20T19:59:08.507Z,2.15
2023-03-20T20:01:36.252Z,2.13
2023-03-20T20:04:02.966Z,2.65
2023-03-20T20:06:32.142Z,2.75
2023-03-20T20:08:59.827Z,2.05
2023-03-20T20:11:26.404Z,2.00
2023-03-20T20:14:10.189Z,2.25
2023-03-20T20:16:43.143Z,2.35
2023-03-20T20:19:10.325Z,2.83
2023-03-20T20:24:23.556Z,2.70
2023-03-20T20:27:11.581Z,2.38
2023-03-20T20:29:38.683Z,2.65
2023-03-20T20:32:05.540Z,2.13
2023-03-20T20:40:06.800Z,2.33
2023-03-20T20:42:33.495Z,2.50
2023-03-20T20:45:00.110Z,2.50
2023-03-20T20:47:26.636Z,2.67
2023-03-20T20:49:53.880Z,2.15
2023-03-20T20:52:20.822Z,2.50
2023-03-20T20:54:48.164Z,2.80
2023-03-20T20:57:15.517Z,2.58
2023-03-20T20:59:42.055Z,2.13
2023-03-20T21:02:15.391Z,2.53
2023-03-20T21:04:43.508Z,3.40
2023-03-20T21:07:12.077Z,3.92
2023-03-20T21:09:40.104Z,3.63
2023-03-20T21:12:08.227Z,4.22
2023-03-20T21:14:34.903Z,4.70
2023-03-20T21:17:01.657Z,4.38
2023-03-20T21:19:34.703Z,4.90
2023-03-20T21:22:01.321Z,4.78
2023-03-20T21:24:33.572Z,3.80
2023-03-20T21:27:08.174Z,4.15
2023-03-20T21:29:34.779Z,4.05
2023-03-20T21:32:01.394Z,4.30
2023-03-20T21:34:29.136Z,4.38
2023-03-20T21:36:57.894Z,4.32
2023-03-20T21:39:27.554Z,4.00
2023-03-20T21:41:54.352Z,4.00
2023-03-20T21:44:56.093Z,3.63
2023-03-20T21:47:58.632Z,3.47
2023-03-20T22:01:45.090Z,2.83
2023-03-20T22:04:49.146Z,3.00
2023-03-20T22:07:18.926Z,2.83
2023-03-20T22:18:12.206Z,2.42
2023-03-20T22:24:10.467Z,2.15
2023-03-20T22:29:53.939Z,2.00
2023-03-20T22:32:40.252Z,2.00
2023-03-20T22:34:54.396Z,2.25
2023-03-20T22:40:50.347Z,2.17
2023-03-20T22:42:56.330Z,2.10
2023-03-20T22:45:37.919Z,1.83
2023-03-20T22:48:10.823Z,2.10
2023-03-20T22:50:38.680Z,2.15
2023-03-20T22:53:05.475Z,1.90
2023-03-20T22:55:32.208Z,1.92
2023-03-20T22:58:06.823Z,1.88
2023-03-20T23:00:35.645Z,1.77
2023-03-20T23:03:15.373Z,1.67
2023-03-20T23:05:46.481Z,1.58
2023-03-20T23:08:13.046Z,1.90
2023-03-20T23:10:44.374Z,1.88
2023-03-20T23:13:11.507Z,1.60
2023-03-20T23:15:38.487Z,1.77
2023-03-20T23:18:06.270Z,1.58
2023-03-20T23:20:33.030Z,1.52
2023-03-20T23:22:59.506Z,1.48
2023-03-20T23:25:38.243Z,1.52
2023-03-20T23:28:08.516Z,1.30
2023-03-20T23:30:44.332Z,1.90
2023-03-20T23:33:14.654Z,1.25
2023-03-20T23:35:41.134Z,1.65
2023-03-20T23:38:07.635Z,1.50
2023-03-20T23:40:34.129Z,1.85
2023-03-20T23:43:00.622Z,1.35
2023-03-20T23:45:27.206Z,1.35
2023-03-20T23:47:53.763Z,1.40
2023-03-20T23:50:28.876Z,1.00
2023-03-20T23:53:13.558Z,1.17
2023-03-20T23:55:46.770Z,1.33
2023-03-20T23:58:14.037Z,1.30
